sensor_id;sensor_type;location;lat;lon;timestamp;temperature;humidity
38568;DHT22;24338;48.280;10.970;2022-11-15T00:00:57;2.60;99.90
38568;DHT22;24338;48.280;10.970;2022-11-15T00:03:25;2.50;99.90
38568;DHT22;24338;48.280;10.970;2022-11-15T00:05:53;2.50;99.90
38568;DHT22;24338;48.280;10.970;2022-11-15T00:08:20;2.50;99.90
38568;DHT22;24338;48.280;10.970;2022-11-15T00:11:00;2.50;99.90
38568;DHT22;24338;48.280;10.970;2022-11-15T00:13:28;2.50;99.90
38568;DHT22;24338;48.280;10.970;2022-11-15T00:16:00;2.50;99.90
38568;DHT22;24338;48.280;10.970;2022-11-15T00:18:28;2.50;99.90
38568;DHT22;24338;48.280;10.970;2022-11-15T00:20:55;2.50;99.90
38568;DHT22;24338;48.280;10.970;2022-11-15T00:23:22;2.50;99.90
38568;DHT22;24338;48.280;10.970;2022-11-15T00:25:57;2.50;99.90
38568;DHT22;24338;48.280;10.970;2022-11-15T00:28:24;2.50;99.90
38568;DHT22;24338;48.280;10.970;2022-11-15T00:30:52;2.60;99.90
38568;DHT22;24338;48.280;10.970;2022-11-15T00:33:19;2.60;99.90
38568;DHT22;24338;48.280;10.970;2022-11-15T00:35:46;2.60;99.90
38568;DHT22;24338;48.280;10.970;2022-11-15T00:38:13;2.60;99.90
38568;DHT22;24338;48.280;10.970;2022-11-15T00:40:40;2.50;99.90
38568;DHT22;24338;48.280;10.970;2022-11-15T00:43:06;2.50;99.90
38568;DHT22;24338;48.280;10.970;2022-11-15T00:45:33;2.50;99.90
38568;DHT22;24338;48.280;10.970;2022-11-15T00:48:00;2.50;99.90
38568;DHT22;24338;48.280;10.970;2022-11-15T00:50:27;2.60;99.90
38568;DHT22;24338;48.280;10.970;2022-11-15T00:52:54;2.60;99.90
38568;DHT22;24338;48.280;10.970;2022-11-15T00:55:21;2.60;99.90
38568;DHT22;24338;48.280;10.970;2022-11-15T00:57:48;2.60;99.90
38568;DHT22;24338;48.280;10.970;2022-11-15T01:00:15;2.60;99.90
38568;DHT22;24338;48.280;10.970;2022-11-15T01:02:42;2.60;99.90
38568;DHT22;24338;48.280;10.970;2022-11-15T01:05:09;2.60;99.90
38568;DHT22;24338;48.280;10.970;2022-11-15T01:07:35;2.60;99.90
38568;DHT22;24338;48.280;10.970;2022-11-15T01:10:03;2.60;99.90
38568;DHT22;24338;48.280;10.970;2022-11-15T01:12:30;2.60;99.90
38568;DHT22;24338;48.280;10.970;2022-11-15T01:14:58;2.60;99.90
38568;DHT22;24338;48.280;10.970;2022-11-15T01:17:25;2.60;99.90
38568;DHT22;24338;48.280;10.970;2022-11-15T01:19:52;2.50;99.90
38568;DHT22;24338;48.280;10.970;2022-11-15T01:22:19;2.50;99.90
38568;DHT22;24338;48.280;10.970;2022-11-15T01:24:46;2.50;99.90
38568;DHT22;24338;48.280;10.970;2022-11-15T01:27:12;2.50;99.90
38568;DHT22;24338;48.280;10.970;2022-11-15T01:29:39;2.50;99.90
38568;DHT22;24338;48.280;10.970;2022-11-15T01:32:06;2.50;99.90
38568;DHT22;24338;48.280;10.970;2022-11-15T01:34:33;2.40;99.90
38568;DHT22;24338;48.280;10.970;2022-11-15T01:37:00;2.40;99.90
38568;DHT22;24338;48.280;10.970;2022-11-15T01:39:27;2.30;99.90
38568;DHT22;24338;48.280;10.970;2022-11-15T01:41:54;2.30;99.90
38568;DHT22;24338;48.280;10.970;2022-11-15T01:46:59;2.30;99.90
38568;DHT22;24338;48.280;10.970;2022-11-15T01:49:30;2.30;99.90
38568;DHT22;24338;48.280;10.970;2022-11-15T01:52:00;2.30;99.90
38568;DHT22;24338;48.280;10.970;2022-11-15T01:54:27;2.30;99.90
38568;DHT22;24338;48.280;10.970;2022-11-15T01:57:15;2.20;99.90
38568;DHT22;24338;48.280;10.970;2022-11-15T01:59:43;2.30;99.90
38568;DHT22;24338;48.280;10.970;2022-11-15T02:02:11;2.30;99.90
38568;DHT22;24338;48.280;10.970;2022-11-15T02:04:56;2.30;99.90
38568;DHT22;24338;48.280;10.970;2022-11-15T02:07:23;2.20;99.90
38568;DHT22;24338;48.280;10.970;2022-11-15T02:09:50;2.30;99.90
38568;DHT22;24338;48.280;10.970;2022-11-15T02:12:20;2.30;99.90
38568;DHT22;24338;48.280;10.970;2022-11-15T02:14:52;2.40;99.90
38568;DHT22;24338;48.280;10.970;2022-11-15T02:42:35;2.10;99.90
38568;DHT22;24338;48.280;10.970;2022-11-15T02:45:37;2.10;99.90
38568;DHT22;24338;48.280;10.970;2022-11-15T02:48:07;2.00;99.90
38568;DHT22;24338;48.280;10.970;2022-11-15T02:50:35;1.90;99.90
38568;DHT22;24338;48.280;10.970;2022-11-15T02:53:02;1.90;99.90
38568;DHT22;24338;48.280;10.970;2022-11-15T03:00:23;1.90;99.90
38568;DHT22;24338;48.280;10.970;2022-11-15T03:02:59;1.80;99.90
38568;DHT22;24338;48.280;10.970;2022-11-15T03:08:23;1.80;99.90
38568;DHT22;24338;48.280;10.970;2022-11-15T03:11:13;1.80;99.90
38568;DHT22;24338;48.280;10.970;2022-11-15T03:13:54;1.80;99.90
38568;DHT22;24338;48.280;10.970;2022-11-15T03:16:34;1.70;99.90
38568;DHT22;24338;48.280;10.970;2022-11-15T03:19:13;1.70;99.90
38568;DHT22;24338;48.280;10.970;2022-11-15T03:21:41;1.70;99.90
38568;DHT22;24338;48.280;10.970;2022-11-15T03:24:09;1.60;99.90
38568;DHT22;24338;48.280;10.970;2022-11-15T03:26:38;1.60;99.90
38568;DHT22;24338;48.280;10.970;2022-11-15T03:29:30;1.50;99.90
38568;DHT22;24338;48.280;10.970;2022-11-15T03:32:06;1.50;99.90
38568;DHT22;24338;48.280;10.970;2022-11-15T03:34:58;1.40;99.90
38568;DHT22;24338;48.280;10.970;2022-11-15T03:38:05;1.40;99.90
38568;DHT22;24338;48.280;10.970;2022-11-15T03:40:47;1.40;99.90
38568;DHT22;24338;48.280;10.970;2022-11-15T03:43:35;1.30;99.90
38568;DHT22;24338;48.280;10.970;2022-11-15T03:46:21;1.30;99.90
38568;DHT22;24338;48.280;10.970;2022-11-15T03:48:53;1.20;99.90
38568;DHT22;24338;48.280;10.970;2022-11-15T03:51:22;1.20;99.90
38568;DHT22;24338;48.280;10.970;2022-11-15T03:53:50;1.20;99.90
38568;DHT22;24338;48.280;10.970;2022-11-15T03:56:17;1.20;99.90
38568;DHT22;24338;48.280;10.970;2022-11-15T03:58:43;1.30;99.90
38568;DHT22;24338;48.280;10.970;2022-11-15T04:01:10;1.30;99.90
38568;DHT22;24338;48.280;10.970;2022-11-15T04:03:37;1.30;99.90
38568;DHT22;24338;48.280;10.970;2022-11-15T04:06:04;1.30;99.90
38568;DHT22;24338;48.280;10.970;2022-11-15T04:08:31;1.30;99.90
38568;DHT22;24338;48.280;10.970;2022-11-15T04:10:58;1.30;99.90
38568;DHT22;24338;48.280;10.970;2022-11-15T04:13:28;1.30;99.90
38568;DHT22;24338;48.280;10.970;2022-11-15T04:15:55;1.30;99.90
38568;DHT22;24338;48.280;10.970;2022-11-15T04:18:22;1.30;99.90
38568;DHT22;24338;48.280;10.970;2022-11-15T04:20:49;1.30;99.90
38568;DHT22;24338;48.280;10.970;2022-11-15T04:23:34;1.30;99.90
38568;DHT22;24338;48.280;10.970;2022-11-15T04:26:21;1.30;99.90
38568;DHT22;24338;48.280;10.970;2022-11-15T04:28:49;1.30;99.90
38568;DHT22;24338;48.280;10.970;2022-11-15T04:31:34;1.30;99.90
38568;DHT22;24338;48.280;10.970;2022-11-15T04:34:01;1.30;99.90
38568;DHT22;24338;48.280;10.970;2022-11-15T04:36:28;1.30;99.90
38568;DHT22;24338;48.280;10.970;2022-11-15T04:39:13;1.30;99.90
38568;DHT22;24338;48.280;10.970;2022-11-15T04:41:40;1.30;99.90
38568;DHT22;24338;48.280;10.970;2022-11-15T04:44:07;1.20;99.90
38568;DHT22;24338;48.280;10.970;2022-11-15T04:46:34;1.20;99.90
38568;DHT22;24338;48.280;10.970;2022-11-15T04:49:01;1.20;99.90
38568;DHT22;24338;48.280;10.970;2022-11-15T04:51:27;1.20;99.90
38568;DHT22;24338;48.280;10.970;2022-11-15T04:53:54;1.20;99.90
38568;DHT22;24338;48.280;10.970;2022-11-15T04:56:21;1.10;99.90
38568;DHT22;24338;48.280;10.970;2022-11-15T04:58:51;1.10;99.90
38568;DHT22;24338;48.280;10.970;2022-11-15T05:01:18;1.10;99.90
38568;DHT22;24338;48.280;10.970;2022-11-15T05:03:45;1.00;99.90
38568;DHT22;24338;48.280;10.970;2022-11-15T05:06:30;1.00;99.90
38568;DHT22;24338;48.280;10.970;2022-11-15T05:08:58;1.00;99.90
38568;DHT22;24338;48.280;10.970;2022-11-15T05:11:25;0.90;99.90
38568;DHT22;24338;48.280;10.970;2022-11-15T05:13:53;0.90;99.90
38568;DHT22;24338;48.280;10.970;2022-11-15T05:16:20;0.90;99.90
38568;DHT22;24338;48.280;10.970;2022-11-15T05:18:51;0.80;99.90
38568;DHT22;24338;48.280;10.970;2022-11-15T05:21:18;0.80;99.90
38568;DHT22;24338;48.280;10.970;2022-11-15T05:23:45;0.80;99.90
38568;DHT22;24338;48.280;10.970;2022-11-15T05:26:12;0.80;99.90
38568;DHT22;24338;48.280;10.970;2022-11-15T05:28:41;0.80;99.90
38568;DHT22;24338;48.280;10.970;2022-11-15T05:31:13;0.80;99.90
38568;DHT22;24338;48.280;10.970;2022-11-15T05:33:41;0.80;99.90
38568;DHT22;24338;48.280;10.970;2022-11-15T05:36:34;0.80;99.90
38568;DHT22;24338;48.280;10.970;2022-11-15T05:39:04;0.80;99.90
38568;DHT22;24338;48.280;10.970;2022-11-15T05:41:39;0.70;99.90
38568;DHT22;24338;48.280;10.970;2022-11-15T05:44:09;0.70;99.90
38568;DHT22;24338;48.280;10.970;2022-11-15T05:46:38;0.70;99.90
38568;DHT22;24338;48.280;10.970;2022-11-15T05:49:07;0.70;99.90
38568;DHT22;24338;48.280;10.970;2022-11-15T05:51:35;0.70;99.90
38568;DHT22;24338;48.280;10.970;2022-11-15T05:54:02;0.70;99.90
38568;DHT22;24338;48.280;10.970;2022-11-15T05:56:30;0.70;99.90
38568;DHT22;24338;48.280;10.970;2022-11-15T05:58:58;0.60;99.90
38568;DHT22;24338;48.280;10.970;2022-11-15T06:01:27;0.60;99.90
38568;DHT22;24338;48.280;10.970;2022-11-15T06:03:54;0.60;99.90
38568;DHT22;24338;48.280;10.970;2022-11-15T06:06:21;0.60;99.90
38568;DHT22;24338;48.280;10.970;2022-11-15T06:08:48;0.60;99.90
38568;DHT22;24338;48.280;10.970;2022-11-15T06:11:15;0.60;99.90
38568;DHT22;24338;48.280;10.970;2022-11-15T06:13:42;0.60;99.90
38568;DHT22;24338;48.280;10.970;2022-11-15T06:16:08;0.50;99.90
38568;DHT22;24338;48.280;10.970;2022-11-15T06:18:36;0.40;99.90
38568;DHT22;24338;48.280;10.970;2022-11-15T06:21:04;0.40;99.90
38568;DHT22;24338;48.280;10.970;2022-11-15T06:23:34;0.40;99.90
38568;DHT22;24338;48.280;10.970;2022-11-15T06:26:02;0.40;99.90
38568;DHT22;24338;48.280;10.970;2022-11-15T06:28:31;0.40;99.90
38568;DHT22;24338;48.280;10.970;2022-11-15T06:31:05;0.40;99.90
38568;DHT22;24338;48.280;10.970;2022-11-15T06:33:33;0.40;99.90
38568;DHT22;24338;48.280;10.970;2022-11-15T06:36:05;0.40;99.90
38568;DHT22;24338;48.280;10.970;2022-11-15T06:38:32;0.40;99.90
38568;DHT22;24338;48.280;10.970;2022-11-15T06:41:04;0.50;99.90
38568;DHT22;24338;48.280;10.970;2022-11-15T06:43:31;0.50;99.90
38568;DHT22;24338;48.280;10.970;2022-11-15T06:45:59;0.60;99.90
38568;DHT22;24338;48.280;10.970;2022-11-15T06:48:27;0.60;99.90
38568;DHT22;24338;48.280;10.970;2022-11-15T06:50:59;0.60;99.90
38568;DHT22;24338;48.280;10.970;2022-11-15T06:53:27;0.70;99.90
38568;DHT22;24338;48.280;10.970;2022-11-15T06:55:59;0.70;99.90
38568;DHT22;24338;48.280;10.970;2022-11-15T06:58:26;0.60;99.90
38568;DHT22;24338;48.280;10.970;2022-11-15T07:00:53;0.70;99.90
38568;DHT22;24338;48.280;10.970;2022-11-15T07:03:20;0.70;99.90
38568;DHT22;24338;48.280;10.970;2022-11-15T07:05:52;0.70;99.90
38568;DHT22;24338;48.280;10.970;2022-11-15T07:08:21;0.70;99.90
38568;DHT22;24338;48.280;10.970;2022-11-15T07:10:48;0.70;99.90
38568;DHT22;24338;48.280;10.970;2022-11-15T07:13:15;0.70;99.90
38568;DHT22;24338;48.280;10.970;2022-11-15T07:15:42;0.80;99.90
38568;DHT22;24338;48.280;10.970;2022-11-15T07:18:09;0.80;99.90
38568;DHT22;24338;48.280;10.970;2022-11-15T07:20:36;0.80;99.90
38568;DHT22;24338;48.280;10.970;2022-11-15T07:23:04;0.80;99.90
38568;DHT22;24338;48.280;10.970;2022-11-15T07:25:32;0.90;99.90
38568;DHT22;24338;48.280;10.970;2022-11-15T07:27:59;0.90;99.90
38568;DHT22;24338;48.280;10.970;2022-11-15T07:30:27;1.00;99.90
38568;DHT22;24338;48.280;10.970;2022-11-15T07:32:55;1.00;99.90
38568;DHT22;24338;48.280;10.970;2022-11-15T07:35:24;1.00;99.90
38568;DHT22;24338;48.280;10.970;2022-11-15T07:37:59;1.10;99.90
38568;DHT22;24338;48.280;10.970;2022-11-15T07:40:27;1.20;99.90
38568;DHT22;24338;48.280;10.970;2022-11-15T07:43:05;1.20;99.90
38568;DHT22;24338;48.280;10.970;2022-11-15T07:45:33;1.20;99.90
38568;DHT22;24338;48.280;10.970;2022-11-15T07:48:02;1.30;99.90
38568;DHT22;24338;48.280;10.970;2022-11-15T07:50:29;1.40;99.90
38568;DHT22;24338;48.280;10.970;2022-11-15T07:52:59;1.40;99.90
38568;DHT22;24338;48.280;10.970;2022-11-15T07:55:27;1.50;99.90
38568;DHT22;24338;48.280;10.970;2022-11-15T07:58:03;1.60;99.90
38568;DHT22;24338;48.280;10.970;2022-11-15T08:00:30;1.70;99.90
38568;DHT22;24338;48.280;10.970;2022-11-15T08:03:08;1.70;99.90
38568;DHT22;24338;48.280;10.970;2022-11-15T08:05:37;1.80;99.90
38568;DHT22;24338;48.280;10.970;2022-11-15T08:08:05;1.90;99.90
38568;DHT22;24338;48.280;10.970;2022-11-15T08:10:32;1.90;99.90
38568;DHT22;24338;48.280;10.970;2022-11-15T08:13:08;2.00;99.90
38568;DHT22;24338;48.280;10.970;2022-11-15T08:15:36;2.10;99.90
38568;DHT22;24338;48.280;10.970;2022-11-15T08:18:08;2.20;99.90
38568;DHT22;24338;48.280;10.970;2022-11-15T08:20:36;2.30;99.90
38568;DHT22;24338;48.280;10.970;2022-11-15T08:23:04;2.40;99.90
38568;DHT22;24338;48.280;10.970;2022-11-15T08:25:32;2.60;99.90
38568;DHT22;24338;48.280;10.970;2022-11-15T08:28:02;2.70;99.90
38568;DHT22;24338;48.280;10.970;2022-11-15T08:30:30;2.80;99.90
38568;DHT22;24338;48.280;10.970;2022-11-15T08:32:58;2.90;99.90
38568;DHT22;24338;48.280;10.970;2022-11-15T08:35:25;3.00;99.90
38568;DHT22;24338;48.280;10.970;2022-11-15T08:37:55;3.10;99.90
38568;DHT22;24338;48.280;10.970;2022-11-15T08:40:21;3.20;99.90
38568;DHT22;24338;48.280;10.970;2022-11-15T08:42:49;3.30;99.90
38568;DHT22;24338;48.280;10.970;2022-11-15T08:45:16;3.40;99.90
38568;DHT22;24338;48.280;10.970;2022-11-15T08:47:43;3.40;99.90
38568;DHT22;24338;48.280;10.970;2022-11-15T08:50:15;3.50;99.90
38568;DHT22;24338;48.280;10.970;2022-11-15T08:52:42;3.60;99.90
38568;DHT22;24338;48.280;10.970;2022-11-15T08:55:09;3.60;99.90
38568;DHT22;24338;48.280;10.970;2022-11-15T08:57:36;3.70;99.90
38568;DHT22;24338;48.280;10.970;2022-11-15T09:00:04;3.80;99.90
38568;DHT22;24338;48.280;10.970;2022-11-15T09:02:31;3.80;99.90
38568;DHT22;24338;48.280;10.970;2022-11-15T09:04:57;4.00;99.90
38568;DHT22;24338;48.280;10.970;2022-11-15T09:07:25;4.10;99.90
38568;DHT22;24338;48.280;10.970;2022-11-15T09:09:52;4.20;99.90
38568;DHT22;24338;48.280;10.970;2022-11-15T09:12:18;4.30;99.90
38568;DHT22;24338;48.280;10.970;2022-11-15T09:14:45;4.40;99.90
38568;DHT22;24338;48.280;10.970;2022-11-15T09:17:12;4.50;99.90
38568;DHT22;24338;48.280;10.970;2022-11-15T09:19:39;4.70;99.90
38568;DHT22;24338;48.280;10.970;2022-11-15T09:22:07;4.80;99.90
38568;DHT22;24338;48.280;10.970;2022-11-15T09:24:35;4.90;99.90
38568;DHT22;24338;48.280;10.970;2022-11-15T09:27:02;5.00;99.90
38568;DHT22;24338;48.280;10.970;2022-11-15T09:29:28;5.20;99.90
38568;DHT22;24338;48.280;10.970;2022-11-15T09:31:55;5.30;99.90
38568;DHT22;24338;48.280;10.970;2022-11-15T09:34:22;5.40;99.90
38568;DHT22;24338;48.280;10.970;2022-11-15T09:36:49;5.50;99.90
38568;DHT22;24338;48.280;10.970;2022-11-15T09:39:16;5.50;99.90
38568;DHT22;24338;48.280;10.970;2022-11-15T09:41:51;5.60;99.90
38568;DHT22;24338;48.280;10.970;2022-11-15T09:44:44;5.70;99.90
38568;DHT22;24338;48.280;10.970;2022-11-15T09:50:10;6.00;99.90
38568;DHT22;24338;48.280;10.970;2022-11-15T09:52:39;6.20;99.90
38568;DHT22;24338;48.280;10.970;2022-11-15T09:55:10;6.30;99.90
38568;DHT22;24338;48.280;10.970;2022-11-15T09:58:03;6.40;99.90
38568;DHT22;24338;48.280;10.970;2022-11-15T10:00:42;6.60;99.90
38568;DHT22;24338;48.280;10.970;2022-11-15T10:03:16;6.80;99.90
38568;DHT22;24338;48.280;10.970;2022-11-15T10:05:47;6.90;99.90
38568;DHT22;24338;48.280;10.970;2022-11-15T10:11:24;7.20;99.90
38568;DHT22;24338;48.280;10.970;2022-11-15T10:14:22;7.30;99.90
38568;DHT22;24338;48.280;10.970;2022-11-15T10:22:49;7.80;99.90
38568;DHT22;24338;48.280;10.970;2022-11-15T10:25:19;7.90;99.90
38568;DHT22;24338;48.280;10.970;2022-11-15T10:30:21;8.00;99.90
38568;DHT22;24338;48.280;10.970;2022-11-15T10:32:49;8.10;99.90
38568;DHT22;24338;48.280;10.970;2022-11-15T10:35:29;8.20;99.90
38568;DHT22;24338;48.280;10.970;2022-11-15T10:38:09;8.20;99.90
38568;DHT22;24338;48.280;10.970;2022-11-15T10:40:37;8.30;99.90
38568;DHT22;24338;48.280;10.970;2022-11-15T10:45:37;8.50;99.90
38568;DHT22;24338;48.280;10.970;2022-11-15T10:50:42;8.70;99.90
38568;DHT22;24338;48.280;10.970;2022-11-15T10:53:31;8.70;99.90
38568;DHT22;24338;48.280;10.970;2022-11-15T10:56:03;8.80;99.90
38568;DHT22;24338;48.280;10.970;2022-11-15T10:58:44;8.90;99.90
38568;DHT22;24338;48.280;10.970;2022-11-15T11:01:23;9.10;99.90
38568;DHT22;24338;48.280;10.970;2022-11-15T11:04:07;9.20;99.90
38568;DHT22;24338;48.280;10.970;2022-11-15T11:06:55;9.20;99.90
38568;DHT22;24338;48.280;10.970;2022-11-15T11:09:36;9.30;99.90
38568;DHT22;24338;48.280;10.970;2022-11-15T11:12:06;9.40;99.90
38568;DHT22;24338;48.280;10.970;2022-11-15T11:14:38;9.50;99.90
38568;DHT22;24338;48.280;10.970;2022-11-15T11:17:17;9.70;99.90
38568;DHT22;24338;48.280;10.970;2022-11-15T11:22:40;9.70;99.90
38568;DHT22;24338;48.280;10.970;2022-11-15T11:39:10;10.40;99.90
38568;DHT22;24338;48.280;10.970;2022-11-15T11:44:32;10.50;99.90
38568;DHT22;24338;48.280;10.970;2022-11-15T11:47:18;10.50;99.90
38568;DHT22;24338;48.280;10.970;2022-11-15T11:50:11;10.50;99.90
38568;DHT22;24338;48.280;10.970;2022-11-15T11:55:43;10.60;99.90
38568;DHT22;24338;48.280;10.970;2022-11-15T11:58:21;10.80;99.90
38568;DHT22;24338;48.280;10.970;2022-11-15T12:01:13;10.80;99.90
38568;DHT22;24338;48.280;10.970;2022-11-15T12:03:48;10.80;99.90
38568;DHT22;24338;48.280;10.970;2022-11-15T12:09:17;11.00;99.90
38568;DHT22;24338;48.280;10.970;2022-11-15T12:17:19;11.20;99.90
38568;DHT22;24338;48.280;10.970;2022-11-15T12:19:47;11.30;99.90
38568;DHT22;24338;48.280;10.970;2022-11-15T12:22:46;11.30;99.90
38568;DHT22;24338;48.280;10.970;2022-11-15T12:25:48;11.30;99.90
38568;DHT22;24338;48.280;10.970;2022-11-15T12:28:45;11.30;99.90
38568;DHT22;24338;48.280;10.970;2022-11-15T12:31:41;11.40;99.90
38568;DHT22;24338;48.280;10.970;2022-11-15T12:36:50;11.40;99.90
38568;DHT22;24338;48.280;10.970;2022-11-15T12:39:18;11.40;99.90
38568;DHT22;24338;48.280;10.970;2022-11-15T12:59:48;11.70;99.90
38568;DHT22;24338;48.280;10.970;2022-11-15T13:02:21;11.80;99.90
38568;DHT22;24338;48.280;10.970;2022-11-15T13:04:50;11.80;99.90
38568;DHT22;24338;48.280;10.970;2022-11-15T13:17:46;11.80;99.90
38568;DHT22;24338;48.280;10.970;2022-11-15T13:28:42;11.80;99.90
38568;DHT22;24338;48.280;10.970;2022-11-15T13:33:55;11.90;99.90
38568;DHT22;24338;48.280;10.970;2022-11-15T13:36:25;12.00;99.90
38568;DHT22;24338;48.280;10.970;2022-11-15T13:38:59;12.00;99.90
38568;DHT22;24338;48.280;10.970;2022-11-15T13:41:29;12.00;99.90
38568;DHT22;24338;48.280;10.970;2022-11-15T13:43:57;12.00;99.90
38568;DHT22;24338;48.280;10.970;2022-11-15T13:46:34;12.00;99.90
38568;DHT22;24338;48.280;10.970;2022-11-15T13:49:04;11.90;99.90
38568;DHT22;24338;48.280;10.970;2022-11-15T13:51:47;11.90;99.90
38568;DHT22;24338;48.280;10.970;2022-11-15T13:54:28;11.80;99.90
38568;DHT22;24338;48.280;10.970;2022-11-15T13:59:45;11.50;99.90
38568;DHT22;24338;48.280;10.970;2022-11-15T14:02:19;11.40;99.90
38568;DHT22;24338;48.280;10.970;2022-11-15T14:04:53;11.40;99.90
38568;DHT22;24338;48.280;10.970;2022-11-15T14:07:23;11.30;99.90
38568;DHT22;24338;48.280;10.970;2022-11-15T14:09:52;11.10;99.90
38568;DHT22;24338;48.280;10.970;2022-11-15T14:12:29;11.00;99.90
38568;DHT22;24338;48.280;10.970;2022-11-15T14:14:58;10.90;99.90
38568;DHT22;24338;48.280;10.970;2022-11-15T14:19:56;10.70;99.90
38568;DHT22;24338;48.280;10.970;2022-11-15T14:22:28;10.60;99.90
38568;DHT22;24338;48.280;10.970;2022-11-15T14:25:17;10.60;99.90
38568;DHT22;24338;48.280;10.970;2022-11-15T14:28:12;10.60;99.90
38568;DHT22;24338;48.280;10.970;2022-11-15T14:30:40;10.50;99.90
38568;DHT22;24338;48.280;10.970;2022-11-15T14:33:27;10.40;99.90
38568;DHT22;24338;48.280;10.970;2022-11-15T14:35:57;10.40;99.90
38568;DHT22;24338;48.280;10.970;2022-11-15T14:38:25;10.30;99.90
38568;DHT22;24338;48.280;10.970;2022-11-15T14:40:52;10.20;99.90
38568;DHT22;24338;48.280;10.970;2022-11-15T14:43:20;10.20;99.90
38568;DHT22;24338;48.280;10.970;2022-11-15T14:45:47;10.20;99.90
38568;DHT22;24338;48.280;10.970;2022-11-15T14:48:14;10.20;99.90
38568;DHT22;24338;48.280;10.970;2022-11-15T14:50:41;10.10;99.90
38568;DHT22;24338;48.280;10.970;2022-11-15T14:53:12;10.10;99.90
38568;DHT22;24338;48.280;10.970;2022-11-15T14:55:40;9.90;99.90
38568;DHT22;24338;48.280;10.970;2022-11-15T14:58:07;9.90;99.90
38568;DHT22;24338;48.280;10.970;2022-11-15T15:00:39;9.80;99.90
38568;DHT22;24338;48.280;10.970;2022-11-15T15:03:06;9.70;99.90
38568;DHT22;24338;48.280;10.970;2022-11-15T15:05:42;9.70;99.90
38568;DHT22;24338;48.280;10.970;2022-11-15T15:08:10;9.60;99.90
38568;DHT22;24338;48.280;10.970;2022-11-15T15:10:42;9.50;99.90
38568;DHT22;24338;48.280;10.970;2022-11-15T15:13:22;9.50;99.90
38568;DHT22;24338;48.280;10.970;2022-11-15T15:15:50;9.40;99.90
38568;DHT22;24338;48.280;10.970;2022-11-15T15:18:18;9.30;99.90
38568;DHT22;24338;48.280;10.970;2022-11-15T15:20:56;9.30;99.90
38568;DHT22;24338;48.280;10.970;2022-11-15T15:23:26;9.20;99.90
38568;DHT22;24338;48.280;10.970;2022-11-15T15:25:55;9.10;99.90
38568;DHT22;24338;48.280;10.970;2022-11-15T15:28:23;9.00;99.90
38568;DHT22;24338;48.280;10.970;2022-11-15T15:30:49;8.90;99.90
38568;DHT22;24338;48.280;10.970;2022-11-15T15:33:16;8.90;99.90
38568;DHT22;24338;48.280;10.970;2022-11-15T15:35:43;8.80;99.90
38568;DHT22;24338;48.280;10.970;2022-11-15T15:38:12;8.80;99.90
38568;DHT22;24338;48.280;10.970;2022-11-15T15:40:39;8.70;99.90
38568;DHT22;24338;48.280;10.970;2022-11-15T15:43:06;8.60;99.90
38568;DHT22;24338;48.280;10.970;2022-11-15T15:45:38;8.50;99.90
38568;DHT22;24338;48.280;10.970;2022-11-15T15:48:09;8.50;99.90
38568;DHT22;24338;48.280;10.970;2022-11-15T15:50:37;8.40;99.90
38568;DHT22;24338;48.280;10.970;2022-11-15T15:53:09;8.40;99.90
38568;DHT22;24338;48.280;10.970;2022-11-15T15:55:37;8.30;99.90
38568;DHT22;24338;48.280;10.970;2022-11-15T15:58:04;8.30;99.90
38568;DHT22;24338;48.280;10.970;2022-11-15T16:00:32;8.30;99.90
38568;DHT22;24338;48.280;10.970;2022-11-15T16:03:00;8.20;99.90
38568;DHT22;24338;48.280;10.970;2022-11-15T16:05:27;8.20;99.90
38568;DHT22;24338;48.280;10.970;2022-11-15T16:07:54;8.20;99.90
38568;DHT22;24338;48.280;10.970;2022-11-15T16:10:27;8.20;99.90
38568;DHT22;24338;48.280;10.970;2022-11-15T16:12:55;8.10;99.90
38568;DHT22;24338;48.280;10.970;2022-11-15T16:15:25;8.10;99.90
38568;DHT22;24338;48.280;10.970;2022-11-15T16:17:54;8.10;99.90
38568;DHT22;24338;48.280;10.970;2022-11-15T16:20:32;8.10;99.90
38568;DHT22;24338;48.280;10.970;2022-11-15T16:23:00;8.10;99.90
38568;DHT22;24338;48.280;10.970;2022-11-15T16:25:47;8.00;99.90
38568;DHT22;24338;48.280;10.970;2022-11-15T16:30:43;8.00;99.90
38568;DHT22;24338;48.280;10.970;2022-11-15T16:33:10;8.00;99.90
38568;DHT22;24338;48.280;10.970;2022-11-15T16:35:37;8.00;99.90
38568;DHT22;24338;48.280;10.970;2022-11-15T16:38:04;8.00;99.90
38568;DHT22;24338;48.280;10.970;2022-11-15T16:40:33;8.00;99.90
38568;DHT22;24338;48.280;10.970;2022-11-15T16:43:01;8.00;99.90
38568;DHT22;24338;48.280;10.970;2022-11-15T16:45:30;8.00;99.90
38568;DHT22;24338;48.280;10.970;2022-11-15T16:47:57;7.90;99.90
38568;DHT22;24338;48.280;10.970;2022-11-15T16:50:26;7.90;99.90
38568;DHT22;24338;48.280;10.970;2022-11-15T16:52:56;7.90;99.90
38568;DHT22;24338;48.280;10.970;2022-11-15T16:55:26;7.90;99.90
38568;DHT22;24338;48.280;10.970;2022-11-15T16:57:54;7.90;99.90
38568;DHT22;24338;48.280;10.970;2022-11-15T17:00:24;7.90;99.90
38568;DHT22;24338;48.280;10.970;2022-11-15T17:02:51;7.80;99.90
38568;DHT22;24338;48.280;10.970;2022-11-15T17:05:20;7.80;99.90
38568;DHT22;24338;48.280;10.970;2022-11-15T17:07:49;7.80;99.90
38568;DHT22;24338;48.280;10.970;2022-11-15T17:10:17;7.80;99.90
38568;DHT22;24338;48.280;10.970;2022-11-15T17:12:44;7.70;99.90
38568;DHT22;24338;48.280;10.970;2022-11-15T17:15:12;7.70;99.90
38568;DHT22;24338;48.280;10.970;2022-11-15T17:17:39;7.60;99.90
38568;DHT22;24338;48.280;10.970;2022-11-15T17:20:13;7.60;99.90
38568;DHT22;24338;48.280;10.970;2022-11-15T17:22:41;7.60;99.90
38568;DHT22;24338;48.280;10.970;2022-11-15T17:25:08;7.50;99.90
38568;DHT22;24338;48.280;10.970;2022-11-15T17:27:35;7.50;99.90
38568;DHT22;24338;48.280;10.970;2022-11-15T17:30:02;7.50;99.90
38568;DHT22;24338;48.280;10.970;2022-11-15T17:32:30;7.50;99.90
38568;DHT22;24338;48.280;10.970;2022-11-15T17:34:56;7.40;99.90
38568;DHT22;24338;48.280;10.970;2022-11-15T17:37:23;7.40;99.90
38568;DHT22;24338;48.280;10.970;2022-11-15T17:39:50;7.40;99.90
38568;DHT22;24338;48.280;10.970;2022-11-15T17:42:17;7.40;99.90
38568;DHT22;24338;48.280;10.970;2022-11-15T17:44:44;7.30;99.90
38568;DHT22;24338;48.280;10.970;2022-11-15T17:47:11;7.30;99.90
38568;DHT22;24338;48.280;10.970;2022-11-15T17:49:38;7.30;99.90
38568;DHT22;24338;48.280;10.970;2022-11-15T17:52:06;7.30;99.90
38568;DHT22;24338;48.280;10.970;2022-11-15T17:54:33;7.30;99.90
38568;DHT22;24338;48.280;10.970;2022-11-15T17:57:00;7.20;99.90
38568;DHT22;24338;48.280;10.970;2022-11-15T17:59:27;7.20;99.90
38568;DHT22;24338;48.280;10.970;2022-11-15T18:01:54;7.20;99.90
38568;DHT22;24338;48.280;10.970;2022-11-15T18:04:21;7.20;99.90
38568;DHT22;24338;48.280;10.970;2022-11-15T18:06:54;7.20;99.90
38568;DHT22;24338;48.280;10.970;2022-11-15T18:09:22;7.20;99.90